WetterOnline ( https://www.wetteronline.de )

Wetter aktuell Freiburg im Breisgau

Aktuelles Wetter: Freiburg/Flugplatz (236m)

6-stündlich | Neueste Meldungen
Ortszeit Temperatur Wetter
Sa, 24.02. 1:00 5.1° C leichter Regen
Fr, 23.02. 19:00 8.1° C wolkig
Fr, 23.02. 13:00 9.0° C bewölkt
Fr, 23.02. 7:00 5.5° C wolkenlos
Fr, 23.02. 1:00 6.9° C Regen
Do, 22.02. 19:00 14.6° C leichter Regen
Do, 22.02. 13:00 13.6° C bedeckt
Do, 22.02. 7:00 12.0° C Regen
Ortszeit Temperatur Wetter
Sa, 24.02. 1:00 5.1° C leichter Regen
Sa, 24.02. 0:50 5.1° C leichter Regen
Sa, 24.02. 0:40 5.4° C leichter Regen
Sa, 24.02. 0:30 6.8° C leichter Regen
Sa, 24.02. 0:20 6.8° C leichter Regen
Sa, 24.02. 0:10 6.9° C bedeckt
Sa, 24.02. 0:00 6.5° C bewölkt
Fr, 23.02. 23:30 6.7° C bedeckt
Fr, 23.02. 23:00 6.7° C bedeckt
Fr, 23.02. 22:30 6.0° C bewölkt
Fr, 23.02. 22:00 6.8° C wolkig
Ortszeit Relative Feuchte Sichtweite
Sa, 24.02. 1:00 83% 40 km
Fr, 23.02. 19:00 61% 50 km
Fr, 23.02. 13:00 55% 40 km
Fr, 23.02. 7:00 70% 55 km
Fr, 23.02. 1:00 84% >70 km
Do, 22.02. 19:00 57% 65 km
Do, 22.02. 13:00 61% 65 km
Do, 22.02. 7:00 70% >70 km
Ortszeit Relative Feuchte Sichtweite
Sa, 24.02. 1:00 83% 40 km
Sa, 24.02. 0:50 83% -
Sa, 24.02. 0:40 78% -
Sa, 24.02. 0:30 70% 55 km
Sa, 24.02. 0:20 70% -
Sa, 24.02. 0:10 69% -
Sa, 24.02. 0:00 71% 65 km
Fr, 23.02. 23:30 70% 65 km
Fr, 23.02. 23:00 71% 65 km
Fr, 23.02. 22:30 73% 60 km
Fr, 23.02. 22:00 68% 60 km
Ortszeit Niederschlagsmenge Niederschlagsart
Sa, 24.02. 1:00 0.1 l/m2 in 6 Std. Regen
Fr, 23.02. 19:00 0.1 l/m2 in 12 Std. Regen
Fr, 23.02. 13:00 0.0 l/m2 in 6 Std. -
Fr, 23.02. 7:00 2 l/m2 in 12 Std. Regen
Fr, 23.02. 1:00 2 l/m2 in 6 Std. Regen
Do, 22.02. 19:00 2 l/m2 in 12 Std. Regen
Do, 22.02. 13:00 0.9 l/m2 in 6 Std. Regen
Do, 22.02. 7:00 2 l/m2 in 12 Std. Regen
Ortszeit Niederschlagsmenge Niederschlagsart
Sa, 24.02. 1:00 0.1 l/m2 in 1 Std. Regen
Sa, 24.02. 0:50 keine Meldung -
Sa, 24.02. 0:40 keine Meldung -
Sa, 24.02. 0:30 <0.05 l/m2 in 30 Min -
Sa, 24.02. 0:20 keine Meldung -
Sa, 24.02. 0:10 keine Meldung -
Sa, 24.02. 0:00 0.0 l/m2 in 1 Std. -
Fr, 23.02. 23:30 0.0 l/m2 in 30 Min -
Fr, 23.02. 23:00 <0.05 l/m2 in 1 Std. Regen
Fr, 23.02. 22:30 0.0 l/m2 in 30 Min -
Fr, 23.02. 22:00 0.0 l/m2 in 1 Std. -
Ortszeit Stärke Spitze Richtung
km/h Bft. km/h Grad Sektor
Sa, 24.02. 1:00 15 3 44 240° SW
Fr, 23.02. 19:00 9 2 35 160° S
Fr, 23.02. 13:00 17 3 39 250° W
Fr, 23.02. 7:00 24 4 46 210° SW
Fr, 23.02. 1:00 18 3 65 220° SW
Do, 22.02. 19:00 33 5 61 200° S
Do, 22.02. 13:00 32 5 58 220° SW
Do, 22.02. 7:00 29 5 50 210° SW
Ortszeit Stärke Spitze Richtung
km/h Bft. km/h Grad Sektor
Sa, 24.02. 1:00 15 3 44 240° SW
Sa, 24.02. 0:50 15 3 - 240° SW
Sa, 24.02. 0:40 28 4 - 240° SW
Sa, 24.02. 0:30 13 3 28 210° SW
Sa, 24.02. 0:20 13 3 - 210° SW
Sa, 24.02. 0:10 11 2 - 200° S
Sa, 24.02. 0:00 9 2 17 210° SW
Fr, 23.02. 23:30 6 1 11 210° SW
Fr, 23.02. 23:00 11 2 28 170° S
Fr, 23.02. 22:30 13 3 28 190° S
Fr, 23.02. 22:00 22 4 40 240° SW
Ortszeit Untergrenze Bedeckung Gattung
total tief tief mittel hoch
Sa, 24.02. 1:00 570 m 8/8 8/8 - - -
Fr, 23.02. 19:00 1500 m 6/8 6/8 - - -
Fr, 23.02. 13:00 1320 m 7/8 7/8 - - -
Fr, 23.02. 7:00 - 0/8 0/8 - - -
Fr, 23.02. 1:00 540 m 8/8 8/8 - - -
Do, 22.02. 19:00 2100 m 8/8 6/8 - - -
Do, 22.02. 13:00 1260 m 8/8 8/8 - - -
Do, 22.02. 7:00 870 m 8/8 8/8 - - -
Ortszeit Bedeckungsgrad in Achtel und Wolkenuntergrenze
Sa, 24.02. 1:00 5(570m) 6(750m) 8(930m)
Sa, 24.02. 0:50 5(570m) 6(750m) 8(930m)
Sa, 24.02. 0:40 8
Sa, 24.02. 0:30 5(930m) 7(1500m) 8(2700m)
Sa, 24.02. 0:20 5(930m) 7(1500m) 8(2700m)
Sa, 24.02. 0:10 8
Sa, 24.02. 0:00 3(1500m) 6(2100m) 7(2400m)
Fr, 23.02. 23:30 7(1500m) 8(2400m)
Fr, 23.02. 23:00 6(1440m) 7(1500m) 8(2400m)
Fr, 23.02. 22:30 2(1470m) 7(2700m) 8(3300m)
Fr, 23.02. 22:00 2(1410m) 8(3600m) 8(4200m)
Ortszeit Luftdruck NN (hPa) Tendenz (hPa in 3 Std.)
Sa, 24.02. 1:00 1001 + 1,4
Fr, 23.02. 19:00 998 + 0,1
Fr, 23.02. 13:00 1000 - 1,1
Fr, 23.02. 7:00 1001 - 0,2
Fr, 23.02. 1:00 1001 + 3,3
Do, 22.02. 19:00 993 - 2,8
Do, 22.02. 13:00 999 - 4,1
Do, 22.02. 7:00 1005 - 2,6
Ortszeit Luftdruck NN (hPa) Tendenz (hPa in 3 Std.)
Sa, 24.02. 1:00 1001 + 1,4
Sa, 24.02. 0:50 1001 keine Meldung
Sa, 24.02. 0:40 1001 keine Meldung
Sa, 24.02. 0:30 1000 + 1,5
Sa, 24.02. 0:20 1000 keine Meldung
Sa, 24.02. 0:10 1000 keine Meldung
Sa, 24.02. 0:00 1000 + 1,2
Fr, 23.02. 23:30 1000 + 1,1
Fr, 23.02. 23:00 1000 + 0,9
Fr, 23.02. 22:30 1000 + 1,0
Fr, 23.02. 22:00 999 + 0,8
Ortszeit Schneehöhe (cm)
Sa, 24.02. 1:00 0
Fr, 23.02. 19:00 0
Fr, 23.02. 13:00 0
Fr, 23.02. 7:00 0
Fr, 23.02. 1:00 0
Do, 22.02. 19:00 0
Do, 22.02. 13:00 0
Do, 22.02. 7:00 0
Ortszeit Schneehöhe (cm)
Sa, 24.02. 1:00 0
Sa, 24.02. 0:50 0
Sa, 24.02. 0:40 -
Sa, 24.02. 0:30 0
Sa, 24.02. 0:20 0
Sa, 24.02. 0:10 -
Sa, 24.02. 0:00 0
Fr, 23.02. 23:30 0
Fr, 23.02. 23:00 0
Fr, 23.02. 22:30 0
Fr, 23.02. 22:00 0
Link zu dieser Seite / Seite empfehlen

Das Wetter in ...